Time;durP1;ratioP1;P1;durP2;ratioP2;P2;SDS_P1;SDS_P2;PMS_P1;PMS_P2;Temp;Humidity;BMP_temperature;BMP_pressure;BME280_temperature;BME280_humidity;BME280_pressure;Samples;Min_cycle;Max_cycle;Signal;HPM_P1;HPM_P2
2024/01/16 00:02:24;;;;;;;3.30;2.50;;;;;;;-1.17;77.17;94047.15;110627;1274;22252;-80
2024/01/16 00:04:52;;;;;;;3.70;2.70;;;;;;;-1.14;76.94;94057.52;110572;1274;22115;-80
2024/01/16 00:07:20;;;;;;;3.40;2.40;;;;;;;-1.13;76.81;94068.38;110588;1274;22948;-79
2024/01/16 00:09:52;;;;;;;4.60;2.10;;;;;;;-1.12;76.77;94079.08;110594;1274;22152;-79
2024/01/16 00:12:20;;;;;;;2.80;2.00;;;;;;;-1.15;76.41;94094.27;110563;1274;22198;-80
2024/01/16 00:14:48;;;;;;;5.50;2.90;;;;;;;-1.12;76.31;94104.96;110549;1274;22934;-78
2024/01/16 00:17:17;;;;;;;8.40;4.40;;;;;;;-1.12;76.40;94112.90;110608;1274;22132;-80
2024/01/16 00:19:45;;;;;;;9.00;4.10;;;;;;;-1.12;76.27;94122.74;110601;1274;22238;-79
2024/01/16 00:22:13;;;;;;;6.50;3.70;;;;;;;-1.14;76.18;94120.14;110570;1274;22174;-79
2024/01/16 00:24:41;;;;;;;9.70;6.50;;;;;;;-1.14;76.41;94115.13;110601;1274;22851;-80
2024/01/16 00:27:09;;;;;;;5.00;3.10;;;;;;;-1.16;76.44;94121.52;110596;1274;22171;-79
2024/01/16 00:29:38;;;;;;;4.90;2.80;;;;;;;-1.18;76.44;94123.58;110577;1274;22972;-80
2024/01/16 00:32:06;;;;;;;4.10;1.80;;;;;;;-1.21;76.74;94131.86;110632;1274;22172;-80
2024/01/16 00:34:34;;;;;;;3.60;2.30;;;;;;;-1.24;76.85;94142.55;110558;1274;22302;-79
2024/01/16 00:37:03;;;;;;;4.30;2.50;;;;;;;-1.25;77.14;94143.40;110403;1274;22328;-80
2024/01/16 00:39:31;;;;;;;4.30;2.60;;;;;;;-1.28;76.99;94141.86;110585;1274;22129;-79
2024/01/16 00:41:59;;;;;;;4.20;2.10;;;;;;;-1.27;76.64;94136.15;110614;1274;22106;-80
2024/01/16 00:44:28;;;;;;;5.70;2.50;;;;;;;-1.28;76.64;94142.36;110613;1274;22271;-79
2024/01/16 00:46:56;;;;;;;5.60;3.00;;;;;;;-1.29;76.73;94147.89;110569;1274;22134;-79
2024/01/16 00:49:24;;;;;;;3.80;2.40;;;;;;;-1.29;76.97;94148.75;110611;1274;22117;-79
2024/01/16 00:51:52;;;;;;;3.80;2.30;;;;;;;-1.31;77.47;94157.70;110626;1274;22105;-80
2024/01/16 00:54:20;;;;;;;4.70;2.70;;;;;;;-1.28;77.59;94167.39;110613;1274;22101;-79
2024/01/16 00:56:49;;;;;;;5.70;2.90;;;;;;;-1.28;77.78;94170.31;110593;1274;22166;-79
2024/01/16 00:59:17;;;;;;;2.80;1.80;;;;;;;-1.33;78.08;94162.70;110559;1274;22115;-80
2024/01/16 01:01:45;;;;;;;4.10;2.80;;;;;;;-1.34;77.87;94162.35;110619;1274;22907;-79
2024/01/16 01:04:13;;;;;;;5.30;2.70;;;;;;;-1.36;77.81;94167.34;110615;1274;22859;-79
2024/01/16 01:06:41;;;;;;;4.60;2.60;;;;;;;-1.40;77.71;94163.54;110580;1274;22794;-79
2024/01/16 01:09:12;;;;;;;4.40;3.30;;;;;;;-1.42;77.75;94170.60;110572;1274;22114;-79
2024/01/16 01:11:41;;;;;;;5.20;3.00;;;;;;;-1.44;77.83;94190.42;110598;1274;22180;-80
2024/01/16 01:14:09;;;;;;;2.90;2.10;;;;;;;-1.44;77.68;94192.48;110605;1274;22925;-80
2024/01/16 01:16:37;;;;;;;5.00;3.00;;;;;;;-1.44;77.75;94194.21;110606;1274;22153;-80
2024/01/16 01:19:06;;;;;;;2.70;1.50;;;;;;;-1.43;77.59;94203.53;110638;1274;22237;-80
2024/01/16 01:21:35;;;;;;;4.50;2.50;;;;;;;-1.42;77.69;94203.02;110645;1274;22122;-80
2024/01/16 01:24:04;;;;;;;5.00;2.80;;;;;;;-1.42;78.04;94196.81;110618;1270;22225;-80
2024/01/16 01:26:32;;;;;;;4.00;2.50;;;;;;;-1.41;78.27;94191.98;110517;1272;22130;-79
2024/01/16 01:29:00;;;;;;;4.00;2.60;;;;;;;-1.43;79.08;94179.73;110610;1274;23150;-79
2024/01/16 01:31:28;;;;;;;5.60;2.90;;;;;;;-1.44;79.09;94178.52;110633;1274;22056;-80
2024/01/16 01:33:56;;;;;;;4.70;2.90;;;;;;;-1.48;78.62;94188.84;110575;1274;22132;-79
2024/01/16 01:36:25;;;;;;;3.60;2.10;;;;;;;-1.50;78.58;94198.14;110534;1274;22121;-80
2024/01/16 01:38:53;;;;;;;4.80;2.70;;;;;;;-1.51;78.03;94190.21;110616;1274;22129;-79
2024/01/16 01:41:21;;;;;;;4.80;2.80;;;;;;;-1.57;77.89;94197.61;110589;1274;22112;-78
2024/01/16 01:43:49;;;;;;;6.50;3.80;;;;;;;-1.59;77.58;94198.98;110593;1274;22102;-80
2024/01/16 01:46:19;;;;;;;3.90;3.00;;;;;;;-1.61;77.35;94202.75;110595;1274;22093;-78
2024/01/16 01:48:48;;;;;;;4.30;3.30;;;;;;;-1.60;77.35;94211.73;110560;1264;22926;-79
2024/01/16 01:51:19;;;;;;;4.60;3.30;;;;;;;-1.63;77.50;94212.41;110589;1274;22153;-80
2024/01/16 01:53:49;;;;;;;5.60;4.00;;;;;;;-1.64;77.39;94206.36;110544;1274;22709;-80
2024/01/16 01:56:19;;;;;;;6.10;3.50;;;;;;;-1.65;77.54;94214.29;110600;1274;22178;-80
2024/01/16 01:58:49;;;;;;;4.00;3.00;;;;;;;-1.63;77.73;94204.30;110553;1274;22323;-79
2024/01/16 02:01:19;;;;;;;4.60;2.80;;;;;;;-1.65;77.33;94200.83;110598;1274;22306;-78
2024/01/16 02:03:49;;;;;;;3.20;2.60;;;;;;;-1.65;76.85;94206.53;110609;1274;22700;-80
2024/01/16 02:06:17;;;;;;;4.60;3.10;;;;;;;-1.64;76.45;94214.12;110628;1274;22949;-79
2024/01/16 02:08:46;;;;;;;3.90;2.00;;;;;;;-1.65;76.30;94211.02;110603;1274;22296;-80
2024/01/16 02:11:14;;;;;;;3.80;3.00;;;;;;;-1.65;76.27;94208.25;110590;1274;22147;-80
2024/01/16 02:13:43;;;;;;;4.70;3.00;;;;;;;-1.64;76.42;94212.05;110635;1274;22121;-79
2024/01/16 02:16:21;;;;;;;6.30;4.10;;;;;;;-1.64;76.72;94205.34;110611;1274;22150;-80
2024/01/16 02:18:51;;;;;;;5.00;2.80;;;;;;;-1.64;76.84;94201.70;110559;1274;22310;-79
2024/01/16 02:21:22;;;;;;;4.80;3.00;;;;;;;-1.65;76.49;94213.09;110583;1274;22108;-80
2024/01/16 02:23:50;;;;;;;7.90;4.40;;;;;;;-1.68;76.32;94222.37;110586;1264;22139;-79
2024/01/16 02:26:19;;;;;;;5.10;3.50;;;;;;;-1.67;76.62;94224.60;110595;1274;22737;-78
2024/01/16 02:28:48;;;;;;;3.90;2.90;;;;;;;-1.70;76.56;94222.36;110608;1274;22137;-79
2024/01/16 02:31:17;;;;;;;6.30;3.10;;;;;;;-1.72;76.68;94228.38;110628;1263;22306;-79
2024/01/16 02:33:45;;;;;;;6.10;3.70;;;;;;;-1.76;76.61;94233.70;110581;1274;22773;-80
2024/01/16 02:36:13;;;;;;;3.50;2.20;;;;;;;-1.74;76.45;94239.73;110578;1274;22130;-80
2024/01/16 02:38:41;;;;;;;6.90;3.90;;;;;;;-1.72;76.20;94249.23;110605;1274;22187;-80
2024/01/16 02:41:15;;;;;;;6.60;4.10;;;;;;;-1.72;76.44;94258.88;110607;1274;22696;-80
2024/01/16 02:43:45;;;;;;;3.40;2.70;;;;;;;-1.71;76.00;94268.89;110542;1274;22131;-78
2024/01/16 02:46:14;;;;;;;7.00;4.20;;;;;;;-1.69;75.46;94269.42;110599;1274;22124;-79
2024/01/16 02:48:43;;;;;;;4.30;3.10;;;;;;;-1.67;75.55;94259.78;110597;1266;22967;-79
2024/01/16 02:51:11;;;;;;;3.00;2.50;;;;;;;-1.67;75.36;94256.85;110574;1274;22120;-79
2024/01/16 02:53:39;;;;;;;4.10;2.30;;;;;;;-1.66;74.51;94264.96;110552;1274;22090;-79
2024/01/16 02:56:08;;;;;;;3.40;2.30;;;;;;;-1.67;73.43;94258.05;110623;1274;22308;-80
2024/01/16 02:58:37;;;;;;;4.60;3.30;;;;;;;-1.71;73.43;94269.23;110607;1274;22105;-80
2024/01/16 03:01:06;;;;;;;7.10;3.50;;;;;;;-1.77;73.83;94267.83;110583;1274;22087;-80
2024/01/16 03:03:35;;;;;;;6.30;3.40;;;;;;;-1.81;74.11;94269.86;110589;1274;22453;-79
2024/01/16 03:06:03;;;;;;;4.10;2.20;;;;;;;-1.87;74.07;94269.14;110585;1274;22130;-80
2024/01/16 03:08:32;;;;;;;4.90;3.20;;;;;;;-1.95;74.00;94268.39;110604;1274;22911;-80
2024/01/16 03:11:00;;;;;;;4.10;2.80;;;;;;;-2.00;73.90;94266.44;110612;1274;22094;-79
2024/01/16 03:13:28;;;;;;;6.90;3.30;;;;;;;-2.04;73.57;94268.48;110599;1263;22190;-80
2024/01/16 03:15:56;;;;;;;5.80;3.60;;;;;;;-2.08;73.59;94274.48;110598;1274;22285;-79
2024/01/16 03:18:26;;;;;;;5.30;2.80;;;;;;;-2.12;73.52;94276.35;110616;1274;22179;-80
2024/01/16 03:20:54;;;;;;;3.70;2.60;;;;;;;-2.13;73.00;94279.95;110569;1274;22374;-79
2024/01/16 03:23:22;;;;;;;4.50;2.90;;;;;;;-2.11;72.98;94278.27;110600;1274;22116;-79
2024/01/16 03:25:51;;;;;;;3.90;2.80;;;;;;;-2.10;73.59;94282.73;110584;1274;22978;-79
2024/01/16 03:28:20;;;;;;;4.50;3.10;;;;;;;-2.13;74.18;94283.91;110557;1274;22123;-80
2024/01/16 03:30:48;;;;;;;5.00;3.20;;;;;;;-2.13;74.54;94281.15;110610;1274;22304;-80
2024/01/16 03:33:17;;;;;;;7.20;3.40;;;;;;;-2.11;74.78;94284.28;110622;1274;22137;-78
2024/01/16 03:35:45;;;;;;;7.20;3.80;;;;;;;-2.14;75.11;94282.52;110591;1274;22131;-79
2024/01/16 03:38:14;;;;;;;3.20;2.40;;;;;;;-2.16;75.37;94279.76;110583;1274;22120;-79
2024/01/16 03:40:42;;;;;;;5.50;3.50;;;;;;;-2.22;75.33;94285.73;110595;1274;22127;-79
2024/01/16 03:43:10;;;;;;;4.30;3.30;;;;;;;-2.24;75.26;94280.72;110596;1274;22881;-81
2024/01/16 03:45:38;;;;;;;4.20;3.00;;;;;;;-2.27;75.23;94281.55;110602;1274;22245;-79
2024/01/16 03:48:06;;;;;;;6.30;3.10;;;;;;;-2.28;75.29;94289.63;110592;1274;22759;-79
2024/01/16 03:50:36;;;;;;;4.60;3.00;;;;;;;-2.30;75.09;94289.61;110607;1274;23035;-79
2024/01/16 03:53:04;;;;;;;5.70;3.90;;;;;;;-2.33;75.17;94295.45;110602;1274;22184;-79
2024/01/16 03:55:32;;;;;;;4.20;2.60;;;;;;;-2.33;75.17;94296.81;110578;1274;22124;-79
2024/01/16 03:58:01;;;;;;;6.50;4.10;;;;;;;-2.37;74.92;94302.47;110588;1274;22153;-79
2024/01/16 04:00:29;;;;;;;5.00;3.10;;;;;;;-2.38;74.76;94304.36;110622;1274;22741;-79
2024/01/16 04:02:57;;;;;;;8.40;4.10;;;;;;;-2.39;74.89;94312.10;110573;1274;22268;-79
2024/01/16 04:05:25;;;;;;;8.50;4.40;;;;;;;-2.36;74.90;94324.35;110539;1274;22229;-79
2024/01/16 04:07:54;;;;;;;7.40;4.80;;;;;;;-2.30;74.98;94322.16;110567;1274;22125;-79
2024/01/16 04:10:22;;;;;;;4.90;3.70;;;;;;;-2.28;74.86;94328.92;110602;1275;22870;-79
2024/01/16 04:12:50;;;;;;;5.30;3.50;;;;;;;-2.26;74.74;94330.13;110600;1274;22089;-79
2024/01/16 04:15:19;;;;;;;7.30;4.60;;;;;;;-2.27;75.06;94335.47;110601;1274;22141;-78
2024/01/16 04:17:50;;;;;;;4.60;2.70;;;;;;;-2.25;74.84;94337.03;110609;1274;22691;-78
2024/01/16 04:20:18;;;;;;;7.00;4.00;;;;;;;-2.27;74.82;94341.67;110611;1274;22190;-80
2024/01/16 04:22:46;;;;;;;8.00;4.40;;;;;;;-2.30;74.58;94346.80;110572;1274;22106;-78
2024/01/16 04:25:15;;;;;;;8.30;4.80;;;;;;;-2.30;74.85;94350.93;110575;1274;22129;-79
2024/01/16 04:27:43;;;;;;;5.70;3.30;;;;;;;-2.31;74.59;94361.44;110589;1269;22140;-78
2024/01/16 04:30:12;;;;;;;7.00;4.10;;;;;;;-2.29;74.51;94367.13;110591;1274;22888;-80
2024/01/16 04:32:40;;;;;;;10.50;5.90;;;;;;;-2.26;74.33;94368.02;110641;1260;22078;-79
2024/01/16 04:35:09;;;;;;;47.30;22.40;;;;;;;-2.27;74.28;94371.98;110573;1274;22278;-76
2024/01/16 04:37:37;;;;;;;6.40;3.80;;;;;;;-2.25;74.61;94366.48;110623;1274;22153;-79
2024/01/16 04:40:06;;;;;;;82.50;34.30;;;;;;;-2.23;74.13;94376.85;110643;1274;22715;-79
2024/01/16 04:42:34;;;;;;;6.20;4.00;;;;;;;-2.25;74.19;94400.78;110600;1274;22116;-80
2024/01/16 04:45:03;;;;;;;5.10;3.40;;;;;;;-2.22;74.31;94392.17;110601;1274;22121;-80
2024/01/16 04:47:31;;;;;;;6.40;3.70;;;;;;;-2.26;74.71;94392.83;110591;1274;22086;-80
2024/01/16 04:49:59;;;;;;;5.40;3.30;;;;;;;-2.27;74.83;94393.52;110610;1274;22160;-79
2024/01/16 04:52:27;;;;;;;4.40;3.20;;;;;;;-2.28;74.80;94403.65;110596;1274;22574;-79
2024/01/16 04:54:56;;;;;;;20.90;13.70;;;;;;;-2.31;74.91;94408.79;110615;1274;22175;-79
2024/01/16 04:57:24;;;;;;;10.60;6.90;;;;;;;-2.30;75.15;94404.68;110587;1274;22183;-79
2024/01/16 04:59:52;;;;;;;7.20;5.00;;;;;;;-2.30;75.29;94403.29;110603;1274;23061;-80
2024/01/16 05:02:21;;;;;;;6.00;3.90;;;;;;;-2.29;75.29;94410.71;110529;1274;22842;-79
2024/01/16 05:04:51;;;;;;;9.80;5.00;;;;;;;-2.27;75.00;94412.44;110506;1274;22309;-79
2024/01/16 05:07:20;;;;;;;6.10;3.40;;;;;;;-2.26;75.05;94416.59;110564;1274;22132;-79
2024/01/16 05:09:49;;;;;;;5.70;4.00;;;;;;;-2.25;75.20;94415.59;110615;1274;22138;-79
2024/01/16 05:12:17;;;;;;;4.70;3.00;;;;;;;-2.23;74.96;94413.02;110590;1274;22169;-80
2024/01/16 05:14:46;;;;;;;6.20;4.40;;;;;;;-2.21;74.88;94419.93;110595;1274;22218;-79
2024/01/16 05:17:14;;;;;;;4.60;3.20;;;;;;;-2.20;74.92;94431.48;110588;1274;22112;-79
2024/01/16 05:19:43;;;;;;;36.40;24.20;;;;;;;-2.23;75.13;94427.48;110515;1274;22189;-80
2024/01/16 05:22:11;;;;;;;5.00;3.60;;;;;;;-2.25;75.02;94436.27;110570;1274;22173;-79
2024/01/16 05:24:39;;;;;;;4.90;3.60;;;;;;;-2.26;74.71;94430.03;110577;1274;23115;-79
2024/01/16 05:27:08;;;;;;;18.00;12.60;;;;;;;-2.29;75.07;94436.02;110555;1274;22356;-78
2024/01/16 05:29:37;;;;;;;19.50;12.60;;;;;;;-2.31;75.58;94437.04;110606;1274;22399;-79
2024/01/16 05:32:09;;;;;;;6.20;3.00;;;;;;;-2.33;75.58;94446.14;110583;1274;22277;-78
2024/01/16 05:34:38;;;;;;;7.20;5.00;;;;;;;-2.30;75.25;94448.94;110576;1274;22129;-79
2024/01/16 05:37:06;;;;;;;6.10;4.00;;;;;;;-2.32;75.10;94450.63;110592;1274;22301;-78
2024/01/16 05:39:34;;;;;;;7.20;4.60;;;;;;;-2.33;74.99;94458.20;110607;1274;22131;-78
2024/01/16 05:42:03;;;;;;;4.90;2.60;;;;;;;-2.33;75.10;94464.23;110164;1263;608258;-79
2024/01/16 05:44:31;;;;;;;5.40;4.30;;;;;;;-2.34;75.06;94461.98;110581;1275;22216;-78
2024/01/16 05:47:00;;;;;;;2.60;2.30;;;;;;;-2.31;74.90;94468.39;110599;1274;22276;-79
2024/01/16 05:49:28;;;;;;;7.20;4.90;;;;;;;-2.29;74.87;94464.62;110588;1275;22198;-78
2024/01/16 05:51:56;;;;;;;7.40;4.90;;;;;;;-2.30;74.76;94468.06;110581;1274;22817;-79
2024/01/16 05:54:24;;;;;;;5.60;3.90;;;;;;;-2.33;74.70;94470.26;110588;1274;22143;-79
2024/01/16 05:56:53;;;;;;;5.30;3.30;;;;;;;-2.35;74.49;94483.32;110582;1275;22111;-78
2024/01/16 05:59:21;;;;;;;5.70;3.70;;;;;;;-2.35;74.29;94487.11;110604;1275;22937;-79
2024/01/16 06:01:49;;;;;;;5.50;4.30;;;;;;;-2.37;74.39;94483.30;110546;1274;22146;-79
2024/01/16 06:04:18;;;;;;;5.40;3.80;;;;;;;-2.36;74.62;94494.66;110582;1274;22176;-80
2024/01/16 06:06:47;;;;;;;4.00;3.00;;;;;;;-2.37;74.75;94496.21;110593;1274;22376;-78
2024/01/16 06:09:16;;;;;;;4.40;3.40;;;;;;;-2.39;74.84;94506.34;110680;1263;22912;-78
2024/01/16 06:11:44;;;;;;;5.50;3.40;;;;;;;-2.40;74.72;94504.61;110603;1274;22134;-79
2024/01/16 06:14:13;;;;;;;6.40;3.90;;;;;;;-2.42;74.64;94507.69;110578;1274;22867;-79
2024/01/16 06:16:41;;;;;;;7.90;3.90;;;;;;;-2.45;74.82;94510.05;110620;1274;22136;-81
2024/01/16 06:19:09;;;;;;;6.20;4.00;;;;;;;-2.46;75.02;94513.14;110601;1274;23068;-79
2024/01/16 06:21:39;;;;;;;20.40;9.60;;;;;;;-2.49;75.20;94508.98;110585;1263;23171;-78
2024/01/16 06:24:07;;;;;;;60.60;22.20;;;;;;;-2.52;75.11;94505.83;110564;1274;22092;-76
2024/01/16 06:26:35;;;;;;;5.90;3.40;;;;;;;-2.53;75.00;94509.77;110596;1275;22260;-78
2024/01/16 06:29:04;;;;;;;11.70;8.10;;;;;;;-2.58;74.98;94511.95;110593;1274;22400;-79
2024/01/16 06:31:34;;;;;;;6.70;5.40;;;;;;;-2.58;75.00;94520.73;110611;1274;22738;-80
2024/01/16 06:34:02;;;;;;;24.50;12.80;;;;;;;-2.61;75.00;94530.85;110524;1275;22176;-79
2024/01/16 06:36:30;;;;;;;81.60;33.20;;;;;;;-2.62;75.52;94546.15;110585;1274;22103;-79
2024/01/16 06:38:58;;;;;;;56.60;23.60;;;;;;;-2.61;75.75;94553.73;110563;1274;22972;-78
2024/01/16 06:41:27;;;;;;;6.50;4.00;;;;;;;-2.54;75.84;94563.13;110586;1274;22489;-77
2024/01/16 06:43:55;;;;;;;9.30;4.50;;;;;;;-2.50;75.60;94572.15;110617;1274;22852;-79
2024/01/16 06:46:23;;;;;;;92.40;35.70;;;;;;;-2.43;75.47;94581.54;110535;1274;22158;-78
2024/01/16 06:48:51;;;;;;;11.70;5.00;;;;;;;-2.37;75.69;94589.55;110625;1274;22193;-80
2024/01/16 06:51:19;;;;;;;6.90;4.80;;;;;;;-2.30;75.01;94600.67;110573;1274;23183;-77
2024/01/16 06:53:48;;;;;;;58.90;25.00;;;;;;;-2.28;75.10;94603.98;110577;1274;22982;-78
2024/01/16 06:56:16;;;;;;;69.90;24.70;;;;;;;-2.26;75.82;94604.01;110572;1274;22123;-80
2024/01/16 06:58:44;;;;;;;8.60;5.60;;;;;;;-2.23;75.57;94603.52;110616;1274;22123;-80
2024/01/16 07:01:14;;;;;;;7.70;5.00;;;;;;;-2.18;75.41;94612.74;110593;1274;22194;-79
2024/01/16 07:03:42;;;;;;;15.60;8.10;;;;;;;-2.13;75.41;94611.77;110567;1274;22128;-79
2024/01/16 07:06:11;;;;;;;7.90;5.20;;;;;;;-2.13;75.32;94611.60;110566;1274;22297;-78
2024/01/16 07:08:39;;;;;;;10.90;6.20;;;;;;;-2.09;75.39;94612.52;110567;1274;22859;-79
2024/01/16 07:11:11;;;;;;;5.10;3.50;;;;;;;-2.06;75.10;94620.66;110554;1274;22999;-78
2024/01/16 07:13:40;;;;;;;6.40;3.80;;;;;;;-2.05;74.83;94630.67;110595;1274;22192;-78
2024/01/16 07:16:14;;;;;;;14.90;8.10;;;;;;;-2.00;74.98;94636.59;110517;1274;22130;-79
2024/01/16 07:18:42;;;;;;;41.70;16.30;;;;;;;-2.01;74.33;94647.95;110563;1275;22236;-78
2024/01/16 07:21:18;;;;;;;17.30;10.30;;;;;;;-1.99;74.11;94648.31;110592;1275;22207;-80
2024/01/16 07:23:47;;;;;;;21.90;9.40;;;;;;;-1.97;73.89;94648.19;110572;1275;22145;-79
2024/01/16 07:26:16;;;;;;;22.10;11.70;;;;;;;-1.95;73.68;94654.58;110577;1274;22133;-78
2024/01/16 07:28:45;;;;;;;9.50;5.60;;;;;;;-1.96;73.47;94653.73;110621;1274;22860;-79
2024/01/16 07:31:16;;;;;;;19.90;12.00;;;;;;;-2.00;73.10;94660.70;110460;1275;22167;-78
2024/01/16 07:33:44;;;;;;;5.40;3.60;;;;;;;-2.04;72.62;94663.59;110529;1274;22081;-79
2024/01/16 07:36:13;;;;;;;28.60;13.50;;;;;;;-2.06;72.45;94672.70;110519;1274;22906;-77
2024/01/16 07:38:41;;;;;;;15.40;7.50;;;;;;;-2.03;72.52;94674.98;110545;1274;23003;-77
2024/01/16 07:41:10;;;;;;;7.00;4.80;;;;;;;-1.99;72.67;94671.58;110580;1275;22119;-79
2024/01/16 07:43:38;;;;;;;13.00;6.80;;;;;;;-1.98;73.20;94679.36;110595;1275;22254;-78
2024/01/16 07:46:06;;;;;;;6.20;4.20;;;;;;;-1.99;73.75;94682.98;110550;1271;22188;-79
2024/01/16 07:48:34;;;;;;;10.50;6.50;;;;;;;-2.02;73.55;94689.80;110570;1274;23130;-77
2024/01/16 07:51:03;;;;;;;7.00;4.20;;;;;;;-2.06;73.78;94700.27;110579;1275;22279;-77
2024/01/16 07:53:31;;;;;;;16.90;9.80;;;;;;;-2.04;74.07;94702.70;110610;1275;22925;-77
2024/01/16 07:55:59;;;;;;;10.80;6.70;;;;;;;-2.04;74.16;94705.98;110590;1274;22245;-77
2024/01/16 07:58:28;;;;;;;6.40;3.90;;;;;;;-2.03;73.92;94708.76;110533;1274;22281;-78
2024/01/16 08:00:56;;;;;;;6.50;4.00;;;;;;;-2.03;72.81;94710.31;110599;1274;22174;-78
2024/01/16 08:03:25;;;;;;;16.60;11.80;;;;;;;-2.03;73.29;94711.67;110575;1274;22169;-76
2024/01/16 08:05:53;;;;;;;10.60;6.40;;;;;;;-2.03;73.57;94723.58;110576;1267;22139;-78
2024/01/16 08:08:22;;;;;;;5.20;3.50;;;;;;;-2.05;73.71;94724.73;110513;1274;22950;-78
2024/01/16 08:10:50;;;;;;;4.40;3.20;;;;;;;-2.08;74.26;94739.16;110632;1274;22869;-77
2024/01/16 08:13:18;;;;;;;9.80;5.50;;;;;;;-2.09;74.41;94733.11;110575;1274;22289;-77
2024/01/16 08:15:46;;;;;;;23.40;13.60;;;;;;;-2.03;74.49;94731.85;110566;1267;22196;-80
2024/01/16 08:18:17;;;;;;;7.40;5.50;;;;;;;-1.98;74.53;94737.61;110601;1274;22177;-78
2024/01/16 08:20:45;;;;;;;6.40;4.90;;;;;;;-2.01;74.46;94734.64;110589;1274;22138;-79
2024/01/16 08:23:14;;;;;;;6.10;4.20;;;;;;;-1.88;74.21;94738.80;110573;1267;22187;-77
2024/01/16 08:25:42;;;;;;;18.30;11.50;;;;;;;-1.71;74.03;94740.59;110581;1274;22177;-79
2024/01/16 08:28:10;;;;;;;6.10;3.90;;;;;;;-1.60;73.59;94753.86;110592;1267;22151;-79
2024/01/16 08:30:38;;;;;;;6.60;4.20;;;;;;;-1.64;73.54;94753.63;110584;1275;22420;-78
2024/01/16 08:33:07;;;;;;;6.80;4.50;;;;;;;-1.68;74.15;94758.55;110546;1275;22183;-78
2024/01/16 08:35:35;;;;;;;5.30;3.30;;;;;;;-1.71;74.10;94760.95;110507;1275;22150;-77
2024/01/16 08:38:04;;;;;;;5.50;3.60;;;;;;;-1.76;74.14;94767.95;110550;1274;22167;-77
2024/01/16 08:40:33;;;;;;;6.20;4.10;;;;;;;-1.89;74.62;94772.74;110524;1274;22188;-76
2024/01/16 08:43:01;;;;;;;6.30;4.30;;;;;;;-1.93;75.09;94775.77;110560;1274;22180;-77
2024/01/16 08:45:30;;;;;;;6.20;4.20;;;;;;;-1.98;75.44;94784.15;110599;1274;22285;-77
2024/01/16 08:47:59;;;;;;;7.90;5.50;;;;;;;-2.00;75.78;94786.35;110550;1274;22368;-76
2024/01/16 08:50:28;;;;;;;7.20;4.30;;;;;;;-1.98;75.50;94791.04;110612;1267;22198;-76
2024/01/16 08:52:57;;;;;;;7.50;4.90;;;;;;;-1.93;75.10;94796.12;110519;1275;22995;-76
2024/01/16 08:55:25;;;;;;;5.50;3.40;;;;;;;-1.93;75.24;94803.86;110565;1274;22800;-76
2024/01/16 08:57:53;;;;;;;6.00;3.90;;;;;;;-1.92;75.17;94799.41;110598;1275;22156;-78
2024/01/16 09:00:21;;;;;;;8.80;5.40;;;;;;;-1.93;75.21;94798.69;110587;1274;23115;-77
2024/01/16 09:02:49;;;;;;;9.10;5.10;;;;;;;-1.91;75.37;94802.52;110562;1274;22265;-77
2024/01/16 09:05:18;;;;;;;8.80;5.10;;;;;;;-1.85;75.31;94797.44;110588;1274;22238;-77
2024/01/16 09:07:46;;;;;;;6.80;4.70;;;;;;;-1.83;75.53;94801.25;110562;1274;22198;-75
2024/01/16 09:10:15;;;;;;;6.00;4.40;;;;;;;-1.88;75.19;94804.13;110558;1274;22170;-77
2024/01/16 09:12:43;;;;;;;13.60;9.00;;;;;;;-1.88;75.82;94808.09;110582;1274;22195;-76
2024/01/16 09:15:11;;;;;;;5.10;3.90;;;;;;;-1.87;75.93;94810.18;110570;1274;22438;-76
2024/01/16 09:17:39;;;;;;;7.40;4.20;;;;;;;-1.82;75.39;94808.35;110594;1274;22150;-75
2024/01/16 09:20:08;;;;;;;4.30;3.30;;;;;;;-1.82;75.28;94810.92;110589;1274;22166;-77
2024/01/16 09:22:36;;;;;;;8.90;5.50;;;;;;;-1.74;74.84;94817.09;110551;1274;22119;-77
2024/01/16 09:25:05;;;;;;;7.00;4.20;;;;;;;-1.59;74.11;94821.14;110573;1274;22360;-78
2024/01/16 09:27:33;;;;;;;4.60;3.40;;;;;;;-1.50;73.73;94814.70;110592;1274;22264;-79
2024/01/16 09:30:01;;;;;;;6.40;4.00;;;;;;;-1.47;73.22;94814.40;110559;1275;22137;-78
2024/01/16 09:32:30;;;;;;;5.30;3.80;;;;;;;-1.41;72.84;94820.70;110601;1274;23046;-78
2024/01/16 09:34:58;;;;;;;33.00;14.20;;;;;;;-1.40;72.44;94822.96;110555;1274;22191;-79
2024/01/16 09:37:26;;;;;;;10.20;4.80;;;;;;;-1.31;72.54;94822.23;110571;1274;22247;-80
2024/01/16 09:39:54;;;;;;;18.00;10.90;;;;;;;-1.31;71.64;94822.06;110567;1275;22403;-80
2024/01/16 09:42:24;;;;;;;7.10;5.10;;;;;;;-1.26;71.76;94818.33;110594;1274;22214;-79
2024/01/16 09:44:55;;;;;;;6.10;3.80;;;;;;;-1.31;71.56;94831.90;110548;1274;22975;-79
2024/01/16 09:47:25;;;;;;;8.50;5.80;;;;;;;-1.39;71.97;94828.67;110491;1274;22177;-77
2024/01/16 09:49:54;;;;;;;5.90;4.80;;;;;;;-1.24;72.67;94827.52;110572;1274;22785;-78
2024/01/16 09:52:22;;;;;;;7.40;5.30;;;;;;;-1.08;71.71;94833.06;110586;1274;22223;-80
2024/01/16 09:54:51;;;;;;;7.90;5.00;;;;;;;-0.96;71.40;94829.95;110591;1274;22120;-79
2024/01/16 09:57:22;;;;;;;4.50;3.50;;;;;;;-0.93;70.69;94836.90;110577;1274;22115;-78
2024/01/16 09:59:51;;;;;;;6.90;4.70;;;;;;;-0.95;70.47;94834.45;110578;1274;22154;-78
2024/01/16 10:02:23;;;;;;;7.10;4.50;;;;;;;-0.93;70.62;94839.84;110494;1275;22177;-80
2024/01/16 10:04:51;;;;;;;4.80;3.20;;;;;;;-0.70;70.56;94834.95;110584;1274;22173;-79
2024/01/16 10:07:25;;;;;;;6.30;4.20;;;;;;;-0.46;69.42;94836.77;110583;1274;22206;-79
2024/01/16 10:09:57;;;;;;;7.70;4.50;;;;;;;-0.31;69.24;94831.25;110615;1274;22201;-79
2024/01/16 10:12:25;;;;;;;5.60;3.60;;;;;;;-0.23;69.48;94837.02;110608;1274;22195;-80
2024/01/16 10:14:55;;;;;;;6.20;4.70;;;;;;;-0.08;68.65;94836.83;110608;1274;22133;-79
2024/01/16 10:17:36;;;;;;;8.60;5.40;;;;;;;-0.22;67.96;94844.13;110519;1274;22192;-78
2024/01/16 10:20:05;;;;;;;85.90;35.20;;;;;;;-0.45;68.84;94843.53;110539;1274;22922;-79
2024/01/16 10:22:33;;;;;;;76.30;31.40;;;;;;;-0.45;69.97;94846.64;110563;1274;22960;-79
2024/01/16 10:25:16;;;;;;;7.90;4.10;;;;;;;-0.44;69.67;94850.80;110462;1274;22164;-79
2024/01/16 10:27:44;;;;;;;45.50;19.90;;;;;;;-0.56;69.57;94856.70;110483;1274;22436;-79
2024/01/16 10:30:13;;;;;;;29.60;13.50;;;;;;;-0.64;70.24;94854.70;110594;1274;22197;-79
2024/01/16 10:32:43;;;;;;;23.80;11.70;;;;;;;-0.57;70.24;94854.27;110578;1274;22166;-79
2024/01/16 10:35:13;;;;;;;10.10;5.20;;;;;;;-0.48;69.76;94853.69;110569;1274;22184;-80
2024/01/16 10:37:44;;;;;;;8.90;5.00;;;;;;;-0.59;69.44;94865.98;110487;1274;22122;-79
2024/01/16 10:40:26;;;;;;;11.60;6.40;;;;;;;-0.80;69.66;94854.15;110506;1274;22196;-79
2024/01/16 10:43:03;;;;;;;15.30;8.30;;;;;;;-0.98;70.47;94858.93;110551;1274;22131;-79
2024/01/16 10:45:32;;;;;;;8.20;5.00;;;;;;;-1.16;70.58;94863.34;110534;1274;22118;-79
2024/01/16 10:48:01;;;;;;;9.10;5.40;;;;;;;-1.29;70.93;94869.02;110533;1274;22237;-79
2024/01/16 10:50:30;;;;;;;10.20;6.40;;;;;;;-1.37;71.19;94864.08;110627;1274;22149;-79
2024/01/16 10:53:06;;;;;;;16.60;7.30;;;;;;;-1.38;71.17;94870.43;110578;1274;23110;-79
2024/01/16 10:55:49;;;;;;;16.70;7.80;;;;;;;-1.39;71.61;94873.00;110510;1274;22202;-79
2024/01/16 10:58:22;;;;;;;6.60;4.00;;;;;;;-1.43;71.45;94873.98;110622;1274;22129;-79
2024/01/16 11:00:52;;;;;;;;;;;;;;;-1.57;70.99;94873.40;110547;1274;22291;-79
2024/01/16 11:03:43;;;;;;;9.40;5.50;;;;;;;-1.67;71.59;94868.26;110616;1274;22160;-79
2024/01/16 11:06:11;;;;;;;8.80;5.40;;;;;;;-1.74;71.94;94879.00;110497;1274;22156;-79
2024/01/16 11:08:41;;;;;;;8.20;4.00;;;;;;;-1.78;72.02;94876.16;110614;1274;22141;-78
2024/01/16 11:11:09;;;;;;;9.10;5.70;;;;;;;-1.77;72.17;94878.44;110539;1274;22128;-79
2024/01/16 11:13:38;;;;;;;8.00;5.40;;;;;;;-1.66;71.95;94874.30;110479;1274;22131;-79
2024/01/16 11:16:08;;;;;;;8.10;5.40;;;;;;;-1.51;71.82;94870.23;110600;1274;22264;-79
2024/01/16 11:18:36;;;;;;;10.00;5.10;;;;;;;-1.42;71.57;94870.89;110552;1274;22212;-79
2024/01/16 11:21:08;;;;;;;8.10;4.80;;;;;;;-1.35;71.01;94868.05;110549;1274;22798;-80
2024/01/16 11:23:43;;;;;;;7.00;4.60;;;;;;;-1.33;70.69;94867.75;110628;1260;22128;-78
2024/01/16 11:26:28;;;;;;;7.10;3.90;;;;;;;-1.06;69.57;94872.63;110559;1274;22157;-78
2024/01/16 11:28:59;;;;;;;5.30;3.90;;;;;;;-0.30;68.00;94863.04;110620;1274;22218;-80
2024/01/16 11:31:35;;;;;;;6.40;3.90;;;;;;;0.45;65.09;94862.73;110558;1274;22871;-79
2024/01/16 11:34:03;;;;;;;5.80;4.10;;;;;;;0.66;63.11;94855.81;110560;1274;22817;-80